createdAt,value
2018-08-23T00:01:28.565Z,89.20
2018-08-23T00:04:13.560Z,89.50
2018-08-23T00:06:55.929Z,89.00
2018-08-23T00:09:24.512Z,89.10
2018-08-23T00:11:53.068Z,89.30
2018-08-23T00:14:21.649Z,88.90
2018-08-23T00:16:50.295Z,90.00
2018-08-23T00:19:18.836Z,90.10
2018-08-23T00:21:49.421Z,90.10
2018-08-23T00:24:20.071Z,90.10
2018-08-23T00:26:50.571Z,90.10
2018-08-23T00:29:24.254Z,90.10
2018-08-23T00:31:54.625Z,90.20
2018-08-23T00:34:34.029Z,90.20
2018-08-23T00:37:04.024Z,90.30
2018-08-23T00:39:32.664Z,90.30
2018-08-23T00:42:04.174Z,90.10
2018-08-23T00:44:48.105Z,90.30
2018-08-23T00:47:16.759Z,90.20
2018-08-23T00:49:45.324Z,90.20
2018-08-23T00:52:15.052Z,90.20
2018-08-23T00:54:43.594Z,90.20
2018-08-23T00:57:12.202Z,90.60
2018-08-23T00:59:40.778Z,90.70
2018-08-23T01:02:11.011Z,90.60
2018-08-23T01:04:43.193Z,90.40
2018-08-23T01:07:13.793Z,90.20
2018-08-23T01:09:45.021Z,90.10
2018-08-23T01:12:13.861Z,90.00
2018-08-23T01:14:42.468Z,90.20
2018-08-23T01:17:16.415Z,90.50
2018-08-23T01:19:50.282Z,90.60
2018-08-23T01:22:18.845Z,90.80
2018-08-23T01:24:48.467Z,90.80
2018-08-23T01:27:23.701Z,90.90
2018-08-23T01:29:52.336Z,91.10
2018-08-23T01:32:35.437Z,91.30
2018-08-23T01:35:04.101Z,91.70
2018-08-23T01:37:37.853Z,91.40
2018-08-23T01:40:09.176Z,91.30
2018-08-23T01:42:38.876Z,91.40
2018-08-23T01:45:09.597Z,91.70
2018-08-23T01:47:43.962Z,91.90
2018-08-23T01:50:13.664Z,92.00
2018-08-23T01:52:50.464Z,92.30
2018-08-23T01:55:19.733Z,92.10
2018-08-23T01:57:48.630Z,91.70
2018-08-23T02:00:33.927Z,91.60
2018-08-23T02:03:03.085Z,91.60
2018-08-23T02:05:31.645Z,91.50
2018-08-23T02:08:00.221Z,91.60
2018-08-23T02:10:28.754Z,91.60
2018-08-23T02:12:58.245Z,91.90
2018-08-23T02:15:30.273Z,92.10
2018-08-23T02:17:59.206Z,92.20
2018-08-23T02:20:28.423Z,92.20
2018-08-23T02:22:56.982Z,92.60
2018-08-23T02:25:25.598Z,92.10
2018-08-23T02:27:59.052Z,92.30
2018-08-23T02:30:41.098Z,92.30
2018-08-23T02:33:10.854Z,92.30
2018-08-23T02:35:39.754Z,92.40
2018-08-23T02:38:08.981Z,92.50
2018-08-23T02:40:38.885Z,92.90
2018-08-23T02:43:07.459Z,93.00
2018-08-23T02:45:41.369Z,93.10
2018-08-23T02:48:09.916Z,93.60
2018-08-23T02:50:38.466Z,93.50
2018-08-23T02:53:23.686Z,93.30
2018-08-23T02:55:53.401Z,93.30
2018-08-23T02:58:23.241Z,93.30
2018-08-23T03:00:51.800Z,93.70
2018-08-23T03:03:20.448Z,93.70
2018-08-23T03:05:48.993Z,93.70
2018-08-23T03:08:21.613Z,93.80
2018-08-23T03:10:50.205Z,93.50
2018-08-23T03:13:23.522Z,93.40
2018-08-23T03:15:52.065Z,93.40
2018-08-23T03:18:20.617Z,93.30
2018-08-23T03:20:50.117Z,93.10
2018-08-23T03:23:18.663Z,92.90
2018-08-23T03:25:47.205Z,92.80
2018-08-23T03:28:15.748Z,93.00
2018-08-23T03:30:46.950Z,92.90
2018-08-23T03:33:15.522Z,93.20
2018-08-23T03:35:44.072Z,92.40
2018-08-23T03:38:12.681Z,92.70
2018-08-23T03:40:41.241Z,92.10
2018-08-23T03:43:09.740Z,92.20
2018-08-23T03:45:38.337Z,92.30
2018-08-23T03:48:06.885Z,91.90
2018-08-23T03:50:39.589Z,92.00
2018-08-23T03:53:08.112Z,90.60
2018-08-23T03:55:36.946Z,90.80
2018-08-23T03:58:05.612Z,91.40
2018-08-23T04:00:39.389Z,91.10
2018-08-23T04:03:13.201Z,90.80
2018-08-23T04:05:41.785Z,90.20
2018-08-23T04:08:10.338Z,90.50
2018-08-23T04:10:38.942Z,90.70
2018-08-23T04:13:07.579Z,90.60
2018-08-23T04:15:36.153Z,90.60
2018-08-23T04:18:16.049Z,90.50
2018-08-23T04:20:51.960Z,89.10
2018-08-23T04:23:20.596Z,89.60
2018-08-23T04:25:49.145Z,89.50
2018-08-23T04:28:17.710Z,89.80
2018-08-23T04:30:46.314Z,89.80
2018-08-23T04:33:14.908Z,89.50
2018-08-23T04:35:43.477Z,89.40
2018-08-23T04:38:12.027Z,90.00
2018-08-23T04:40:46.180Z,90.20
2018-08-23T04:43:14.830Z,90.50
2018-08-23T04:45:43.443Z,90.70
2018-08-23T04:48:12.045Z,91.20
2018-08-23T04:50:40.674Z,90.90
2018-08-23T04:53:09.385Z,91.20
2018-08-23T04:55:37.985Z,91.00
2018-08-23T04:58:06.513Z,91.00
2018-08-23T05:00:35.089Z,91.00
2018-08-23T05:03:03.777Z,91.10
2018-08-23T05:05:33.250Z,90.80
2018-08-23T05:08:01.803Z,90.20
2018-08-23T05:10:30.467Z,90.50
2018-08-23T05:12:59.042Z,90.10
2018-08-23T05:15:27.657Z,90.20
2018-08-23T05:17:56.249Z,90.50
2018-08-23T05:20:24.891Z,90.50
2018-08-23T05:22:58.827Z,90.40
2018-08-23T05:25:27.386Z,90.60
2018-08-23T05:28:19.570Z,90.40
2018-08-23T05:30:49.069Z,90.60
2018-08-23T05:33:18.560Z,90.50
2018-08-23T05:35:47.273Z,90.20
2018-08-23T05:38:16.461Z,90.00
2018-08-23T05:40:52.098Z,90.30
2018-08-23T05:43:20.748Z,90.00
2018-08-23T05:45:50.788Z,89.90
2018-08-23T05:48:32.389Z,87.70
2018-08-23T05:51:02.302Z,87.70
2018-08-23T05:53:30.995Z,87.50
2018-08-23T05:56:00.609Z,85.90
2018-08-23T05:58:32.453Z,85.40
2018-08-23T06:01:04.033Z,85.10
2018-08-23T06:03:32.558Z,83.80
2018-08-23T06:06:01.204Z,81.00
2018-08-23T06:08:29.822Z,81.80
2018-08-23T06:11:04.750Z,80.20
2018-08-23T06:13:33.348Z,79.00
2018-08-23T06:16:01.990Z,78.30
2018-08-23T06:18:30.562Z,78.50
2018-08-23T06:20:59.125Z,78.60
2018-08-23T06:23:37.711Z,77.20
2018-08-23T06:26:06.952Z,76.70
2018-08-23T06:28:35.558Z,75.70
2018-08-23T06:31:05.519Z,75.60
2018-08-23T06:33:39.993Z,75.40
2018-08-23T06:36:09.957Z,74.50
2018-08-23T06:38:40.548Z,73.90
2018-08-23T06:41:09.438Z,73.20
2018-08-23T06:43:44.008Z,73.10
2018-08-23T06:46:12.685Z,74.70
2018-08-23T06:48:41.231Z,74.30
2018-08-23T06:51:10.951Z,73.40
2018-08-23T06:53:47.366Z,73.30
2018-08-23T06:56:17.723Z,71.90
2018-08-23T06:58:46.317Z,71.70
2018-08-23T07:01:31.423Z,72.10
2018-08-23T07:04:10.516Z,72.50
2018-08-23T07:06:39.153Z,71.60
2018-08-23T07:09:14.283Z,71.20
2018-08-23T07:11:43.223Z,72.10
2018-08-23T07:14:15.301Z,72.60
2018-08-23T07:16:45.112Z,72.10
2018-08-23T07:19:25.318Z,69.60
2018-08-23T07:21:54.743Z,69.00
2018-08-23T07:24:36.618Z,70.10
2018-08-23T07:27:07.458Z,68.10
2018-08-23T07:29:36.029Z,68.00
2018-08-23T07:32:06.422Z,66.70
2018-08-23T07:34:35.588Z,63.30
2018-08-23T07:37:08.169Z,65.10
2018-08-23T07:39:36.847Z,62.90
2018-08-23T07:42:05.401Z,59.70
2018-08-23T07:44:34.028Z,60.00
2018-08-23T07:47:02.601Z,56.40
2018-08-23T07:49:31.928Z,49.50
2018-08-23T07:52:00.489Z,49.80
2018-08-23T07:54:29.104Z,48.80
2018-08-23T07:56:57.693Z,47.10
2018-08-23T07:59:26.442Z,45.70
2018-08-23T08:01:55.116Z,44.80
2018-08-23T08:04:23.702Z,47.40
2018-08-23T08:06:52.402Z,44.70
2018-08-23T08:09:25.353Z,42.30
2018-08-23T08:11:59.223Z,43.00
2018-08-23T08:14:33.129Z,42.90
2018-08-23T08:17:08.477Z,42.70
2018-08-23T08:19:39.585Z,40.40
2018-08-23T08:22:08.221Z,38.50
2018-08-23T08:24:37.896Z,40.30
2018-08-23T08:27:06.554Z,37.90
2018-08-23T08:29:39.776Z,36.40
2018-08-23T08:32:10.125Z,34.50
2018-08-23T08:34:42.857Z,33.80
2018-08-23T08:37:11.444Z,32.00
2018-08-23T08:39:40.214Z,32.00
2018-08-23T08:42:12.480Z,31.50
2018-08-23T08:44:41.133Z,31.10
2018-08-23T08:47:09.859Z,29.40
2018-08-23T08:49:39.042Z,29.80
2018-08-23T08:52:08.066Z,31.90
2018-08-23T08:54:36.678Z,30.30
2018-08-23T08:57:05.705Z,31.40
2018-08-23T08:59:34.306Z,29.90
2018-08-23T09:02:03.232Z,30.70
2018-08-23T09:04:37.227Z,29.40
2018-08-23T09:07:06.218Z,29.90
2018-08-23T09:09:36.239Z,30.40
2018-08-23T09:12:12.302Z,30.80
2018-08-23T09:14:42.324Z,28.90
2018-08-23T09:17:27.619Z,30.50
2018-08-23T09:20:06.835Z,29.00
2018-08-23T09:22:39.620Z,29.90
2018-08-23T09:25:12.293Z,29.80
2018-08-23T09:27:41.018Z,28.60
2018-08-23T09:30:15.743Z,28.80
2018-08-23T09:32:47.598Z,30.00
2018-08-23T09:35:17.127Z,30.20
2018-08-23T09:37:46.952Z,30.00
2018-08-23T09:40:15.590Z,28.90
2018-08-23T09:42:44.238Z,29.30
2018-08-23T09:45:14.655Z,28.70
2018-08-23T09:47:43.353Z,29.80
2018-08-23T09:50:12.082Z,29.00
2018-08-23T09:52:43.704Z,30.40
2018-08-23T09:55:13.601Z,30.40
2018-08-23T09:57:42.813Z,29.90
2018-08-23T10:00:12.895Z,28.90
2018-08-23T10:02:46.902Z,30.30
2018-08-23T10:05:20.911Z,28.20
2018-08-23T10:07:54.714Z,30.40
2018-08-23T10:10:28.613Z,28.40
2018-08-23T10:13:02.396Z,30.20
2018-08-23T10:15:36.429Z,30.20
2018-08-23T10:18:10.242Z,29.90
2018-08-23T10:20:44.984Z,29.90
2018-08-23T10:23:15.039Z,29.70
2018-08-23T10:26:03.986Z,28.30
2018-08-23T10:28:37.789Z,28.70
2018-08-23T10:31:06.613Z,28.70
2018-08-23T10:33:35.196Z,29.30
2018-08-23T10:36:03.777Z,31.40
2018-08-23T10:38:32.401Z,30.00
2018-08-23T10:41:04.055Z,30.40
2018-08-23T10:43:37.835Z,29.00
2018-08-23T10:46:06.930Z,31.70
2018-08-23T10:48:35.504Z,30.70
2018-08-23T10:51:04.164Z,31.20
2018-08-23T10:53:32.681Z,32.10
2018-08-23T10:56:01.259Z,31.00
2018-08-23T10:58:29.957Z,31.60
2018-08-23T11:00:58.534Z,31.90
2018-08-23T11:03:27.173Z,33.10
2018-08-23T11:05:55.751Z,33.50
2018-08-23T11:08:32.519Z,34.20
2018-08-23T11:11:06.517Z,32.30
2018-08-23T11:13:40.485Z,32.60
2018-08-23T11:16:14.271Z,34.40
2018-08-23T11:18:48.105Z,35.80
2018-08-23T11:21:17.682Z,33.90
2018-08-23T11:23:46.825Z,32.50
2018-08-23T11:26:22.650Z,33.40
2018-08-23T11:28:51.577Z,32.70
2018-08-23T11:31:25.400Z,33.10
2018-08-23T11:33:54.129Z,32.80
2018-08-23T11:36:22.797Z,32.30
2018-08-23T11:38:51.466Z,31.20
2018-08-23T11:41:20.328Z,32.70
2018-08-23T11:43:49.253Z,34.10
2018-08-23T11:46:19.139Z,33.10
2018-08-23T11:48:48.247Z,34.20
2018-08-23T11:51:17.531Z,31.00
2018-08-23T11:53:46.738Z,32.60
2018-08-23T11:56:15.309Z,34.30
2018-08-23T11:58:44.194Z,32.20
2018-08-23T12:01:14.008Z,32.60
2018-08-23T12:03:42.822Z,32.00
2018-08-23T12:06:12.860Z,34.30
2018-08-23T12:08:41.955Z,33.80
2018-08-23T12:11:10.629Z,32.80
2018-08-23T12:13:39.453Z,33.50
2018-08-23T12:16:08.965Z,34.30
2018-08-23T12:18:38.313Z,34.40
2018-08-23T12:21:07.336Z,37.90
2018-08-23T12:23:36.088Z,36.80
2018-08-23T12:26:04.700Z,35.90
2018-08-23T12:28:38.542Z,37.90
2018-08-23T12:31:07.161Z,37.10
2018-08-23T12:33:35.841Z,35.80
2018-08-23T12:36:09.290Z,36.20
2018-08-23T12:38:43.381Z,36.80
2018-08-23T12:41:17.399Z,35.80
2018-08-23T12:43:48.510Z,36.00
2018-08-23T12:46:17.824Z,36.70
2018-08-23T12:48:46.838Z,36.00
2018-08-23T12:51:15.521Z,36.20
2018-08-23T12:53:44.165Z,37.50
2018-08-23T12:56:12.823Z,38.20
2018-08-23T12:58:41.426Z,37.90
2018-08-23T13:01:10.114Z,38.60
2018-08-23T13:03:38.840Z,38.80
2018-08-23T13:06:07.577Z,39.60
2018-08-23T13:08:36.194Z,40.90
2018-08-23T13:11:04.910Z,41.20
2018-08-23T13:13:33.479Z,41.60
2018-08-23T13:16:02.060Z,41.90
2018-08-23T13:18:30.666Z,43.50
2018-08-23T13:20:59.446Z,43.20
2018-08-23T13:23:28.029Z,44.20
2018-08-23T13:25:58.001Z,44.70
2018-08-23T13:28:27.560Z,45.30
2018-08-23T13:30:56.119Z,47.50
2018-08-23T13:33:25.685Z,49.20
2018-08-23T13:35:54.351Z,51.10
2018-08-23T13:38:22.996Z,53.40
2018-08-23T13:40:51.573Z,55.20
2018-08-23T13:43:20.234Z,57.40
2018-08-23T13:45:48.780Z,61.40
2018-08-23T13:48:17.413Z,63.30
2018-08-23T13:50:46.008Z,66.60
2018-08-23T13:53:14.730Z,68.20
2018-08-23T13:55:43.359Z,69.60
2018-08-23T13:58:11.974Z,72.10
2018-08-23T14:00:41.580Z,71.90
2018-08-23T14:03:11.053Z,74.10
2018-08-23T14:05:40.807Z,75.00
2018-08-23T14:08:09.882Z,75.50
2018-08-23T14:10:38.500Z,75.40
2018-08-23T14:13:07.407Z,75.40
2018-08-23T14:15:41.147Z,78.10
2018-08-23T14:18:09.816Z,80.40
2018-08-23T14:20:38.426Z,80.10
2018-08-23T14:23:07.201Z,82.30
2018-08-23T14:25:35.821Z,81.90
2018-08-23T14:28:04.560Z,83.10
2018-08-23T14:30:33.137Z,82.10
2018-08-23T14:33:01.782Z,81.50
2018-08-23T14:35:30.369Z,83.10
2018-08-23T14:37:59.202Z,83.30
2018-08-23T14:40:27.864Z,84.20
2018-08-23T14:42:56.484Z,84.70
2018-08-23T14:45:30.510Z,84.90
2018-08-23T14:48:04.628Z,85.20
2018-08-23T14:50:34.601Z,84.10
2018-08-23T14:53:03.617Z,85.30
2018-08-23T14:55:37.564Z,85.10
2018-08-23T14:58:06.532Z,86.00
2018-08-23T15:00:35.100Z,83.70
2018-08-23T15:03:03.721Z,83.70
2018-08-23T15:05:32.336Z,84.10
2018-08-23T15:08:01.015Z,85.30
2018-08-23T15:10:29.590Z,84.40
2018-08-23T15:12:58.809Z,85.00
2018-08-23T15:15:32.752Z,85.10
2018-08-23T15:18:02.586Z,85.70
2018-08-23T15:20:31.956Z,86.80
2018-08-23T15:23:00.541Z,85.50
2018-08-23T15:25:29.123Z,85.90
2018-08-23T15:27:57.690Z,85.30
2018-08-23T15:30:26.304Z,86.00
2018-08-23T15:32:54.918Z,86.90
2018-08-23T15:35:23.556Z,86.80
2018-08-23T15:37:52.201Z,89.10
2018-08-23T15:40:20.795Z,88.60
2018-08-23T15:42:49.497Z,88.30
2018-08-23T15:45:19.141Z,87.00
2018-08-23T15:47:47.859Z,85.70
2018-08-23T15:50:16.482Z,85.50
2018-08-23T15:52:45.157Z,85.10
2018-08-23T15:55:13.909Z,85.30
2018-08-23T15:57:42.372Z,84.50
2018-08-23T16:00:10.995Z,84.10
2018-08-23T16:02:39.646Z,83.60
2018-08-23T16:05:08.213Z,83.40
2018-08-23T16:07:36.828Z,85.00
2018-08-23T16:10:06.913Z,86.40
2018-08-23T16:12:35.605Z,85.80
2018-08-23T16:15:09.486Z,86.00
2018-08-23T16:18:44.102Z,85.10
2018-08-23T16:21:12.665Z,83.90
2018-08-23T16:23:41.258Z,85.00
2018-08-23T16:26:09.930Z,85.70
2018-08-23T16:28:38.659Z,84.80
2018-08-23T16:31:07.268Z,84.30
2018-08-23T16:33:35.849Z,84.40
2018-08-23T16:36:04.614Z,83.50
2018-08-23T16:38:33.222Z,83.30
2018-08-23T16:41:01.860Z,82.50
2018-08-23T16:43:30.535Z,82.70
2018-08-23T16:45:59.156Z,82.00
2018-08-23T16:48:27.841Z,81.30
2018-08-23T16:50:56.574Z,81.10
2018-08-23T16:53:26.167Z,81.30
2018-08-23T16:55:54.694Z,81.50
2018-08-23T16:58:23.311Z,80.90
2018-08-23T17:00:52.160Z,81.50
2018-08-23T17:03:20.849Z,82.10
2018-08-23T17:05:49.570Z,80.80
2018-08-23T17:08:18.253Z,82.50
2018-08-23T17:10:47.009Z,80.70
2018-08-23T17:13:20.820Z,80.30
2018-08-23T17:15:54.773Z,79.80
2018-08-23T17:18:23.577Z,79.90
2018-08-23T17:20:52.188Z,80.40
2018-08-23T17:23:21.049Z,80.40
2018-08-23T17:25:49.797Z,80.20
2018-08-23T17:28:18.450Z,79.60
2018-08-23T17:30:47.146Z,79.90
2018-08-23T17:33:15.686Z,80.60
2018-08-23T17:35:44.321Z,81.90
2018-08-23T17:38:13.053Z,81.30
2018-08-23T17:40:41.725Z,82.20
2018-08-23T17:43:10.452Z,80.50
2018-08-23T17:45:39.097Z,81.70
2018-08-23T17:48:08.163Z,80.00
2018-08-23T17:50:36.734Z,80.10
2018-08-23T17:53:05.642Z,80.10
2018-08-23T17:55:34.587Z,79.90
2018-08-23T17:58:05.227Z,80.70
2018-08-23T18:00:33.846Z,81.60
2018-08-23T18:03:02.572Z,83.80
2018-08-23T18:05:31.232Z,85.20
2018-08-23T18:07:59.861Z,85.10
2018-08-23T18:10:28.947Z,87.40
2018-08-23T18:12:57.592Z,87.90
2018-08-23T18:15:31.337Z,88.10
2018-08-23T18:17:59.911Z,89.30
2018-08-23T18:20:28.527Z,90.30
2018-08-23T18:22:57.072Z,90.30
2018-08-23T18:25:25.639Z,90.10
2018-08-23T18:27:54.177Z,90.60
2018-08-23T18:30:22.762Z,90.50
2018-08-23T18:32:51.359Z,90.70
2018-08-23T18:35:19.939Z,90.60
2018-08-23T18:37:48.562Z,90.50
2018-08-23T18:40:17.119Z,90.20
2018-08-23T18:42:45.761Z,90.00
2018-08-23T18:45:14.334Z,90.00
2018-08-23T18:47:43.182Z,89.80
2018-08-23T18:50:11.849Z,89.80
2018-08-23T18:52:40.462Z,90.10
2018-08-23T18:55:09.096Z,89.20
2018-08-23T18:57:37.718Z,88.90
2018-08-23T19:00:07.142Z,88.40
2018-08-23T19:02:35.575Z,88.80
2018-08-23T19:05:04.283Z,88.20
2018-08-23T19:07:38.255Z,88.10
2018-08-23T19:10:06.897Z,88.30
2018-08-23T19:12:35.516Z,88.00
2018-08-23T19:15:04.476Z,87.80
2018-08-23T19:17:38.084Z,88.00
2018-08-23T19:20:07.656Z,88.10
2018-08-23T19:22:36.497Z,87.80
2018-08-23T19:25:05.621Z,87.80
2018-08-23T19:27:34.234Z,88.00
2018-08-23T19:30:02.846Z,87.20
2018-08-23T19:32:31.593Z,88.30
2018-08-23T19:35:00.161Z,88.00
2018-08-23T19:37:28.840Z,88.70
2018-08-23T19:39:57.497Z,89.20
2018-08-23T19:42:26.176Z,88.40
2018-08-23T19:44:57.189Z,89.30
2018-08-23T19:47:31.077Z,89.90
2018-08-23T19:50:01.068Z,89.70
2018-08-23T19:52:29.777Z,90.00
2018-08-23T19:54:58.613Z,88.40
2018-08-23T19:57:27.257Z,88.70
2018-08-23T19:59:55.870Z,88.50
2018-08-23T20:02:24.430Z,88.20
2018-08-23T20:04:53.021Z,88.70
2018-08-23T20:07:21.582Z,87.80
2018-08-23T20:09:50.129Z,87.90
2018-08-23T20:12:18.894Z,88.40
2018-08-23T20:14:47.433Z,87.90
2018-08-23T20:17:16.157Z,87.50
2018-08-23T20:19:44.731Z,87.80
2018-08-23T20:22:13.318Z,88.00
2018-08-23T20:24:41.869Z,88.70
2018-08-23T20:27:10.433Z,88.80
2018-08-23T20:29:39.109Z,89.00
2018-08-23T20:32:07.650Z,88.70
2018-08-23T20:34:36.276Z,89.20
2018-08-23T20:37:05.294Z,89.20
2018-08-23T20:39:33.922Z,89.30
2018-08-23T20:42:04.321Z,89.00
2018-08-23T20:44:33.133Z,89.10
2018-08-23T20:47:08.803Z,88.60
2018-08-23T20:49:43.970Z,88.50
2018-08-23T20:52:12.698Z,88.60
2018-08-23T20:54:44.971Z,88.50
2018-08-23T20:57:14.158Z,88.90
2018-08-23T20:59:42.852Z,88.30
2018-08-23T21:02:11.537Z,88.30
2018-08-23T21:04:40.163Z,88.30
2018-08-23T21:07:08.673Z,88.80
2018-08-23T21:09:37.274Z,88.70
2018-08-23T21:12:06.450Z,87.90
2018-08-23T21:14:35.039Z,87.70
2018-08-23T21:17:03.645Z,87.40
2018-08-23T21:19:32.173Z,86.40
2018-08-23T21:22:00.881Z,86.00
2018-08-23T21:24:29.474Z,85.60
2018-08-23T21:26:58.087Z,85.30
2018-08-23T21:29:26.661Z,84.90
2018-08-23T21:31:55.415Z,84.50
2018-08-23T21:34:23.962Z,84.30
2018-08-23T21:36:52.642Z,84.40
2018-08-23T21:39:21.233Z,84.10
2018-08-23T21:41:49.795Z,83.90
2018-08-23T21:44:18.407Z,83.30
2018-08-23T21:46:47.018Z,82.50
2018-08-23T21:49:15.573Z,82.70
2018-08-23T21:51:44.251Z,83.30
2018-08-23T21:54:13.017Z,81.40
2018-08-23T21:56:41.635Z,81.30
2018-08-23T21:59:10.206Z,80.60
2018-08-23T22:01:38.906Z,79.40
2018-08-23T22:04:07.441Z,79.10
2018-08-23T22:06:36.283Z,78.50
2018-08-23T22:09:07.784Z,78.60
2018-08-23T22:11:36.376Z,78.80
2018-08-23T22:14:05.036Z,78.60
2018-08-23T22:16:33.722Z,78.60
2018-08-23T22:19:02.280Z,78.50
2018-08-23T22:21:30.904Z,78.50
2018-08-23T22:23:59.541Z,78.60
2018-08-23T22:26:28.152Z,78.40
2018-08-23T22:28:56.790Z,78.70
2018-08-23T22:31:25.434Z,78.80
2018-08-23T22:33:54.019Z,79.10
2018-08-23T22:36:22.569Z,80.00
2018-08-23T22:38:51.154Z,80.40
2018-08-23T22:41:19.922Z,81.40
2018-08-23T22:43:48.546Z,81.10
2018-08-23T22:46:17.191Z,80.80
2018-08-23T22:48:45.805Z,81.10
2018-08-23T22:51:14.358Z,81.30
2018-08-23T22:53:42.941Z,82.20
2018-08-23T22:56:11.639Z,82.00
2018-08-23T22:58:40.181Z,81.70
2018-08-23T23:01:08.847Z,81.50
2018-08-23T23:04:46.326Z,81.80
2018-08-23T23:07:14.941Z,81.70
2018-08-23T23:09:43.490Z,82.20
2018-08-23T23:12:12.254Z,82.60
2018-08-23T23:14:40.811Z,82.80
2018-08-23T23:17:10.730Z,82.20
2018-08-23T23:19:39.514Z,82.50
2018-08-23T23:22:08.081Z,82.80
2018-08-23T23:24:41.860Z,82.80
2018-08-23T23:27:10.421Z,82.40
2018-08-23T23:29:39.019Z,82.90
2018-08-23T23:32:07.628Z,82.90
2018-08-23T23:34:36.178Z,83.50
2018-08-23T23:37:04.737Z,83.40
2018-08-23T23:39:33.304Z,84.20
2018-08-23T23:42:01.867Z,84.80
2018-08-23T23:44:30.641Z,85.20
2018-08-23T23:46:59.229Z,85.80
2018-08-23T23:49:27.856Z,85.60
2018-08-23T23:51:56.494Z,86.30
2018-08-23T23:54:25.205Z,85.70
2018-08-23T23:56:54.086Z,87.20
2018-08-23T23:59:22.659Z,86.70
